createdAt,value
2022-12-09T00:03:07.671Z,3.00
2022-12-09T00:06:35.682Z,3.10
2022-12-09T00:10:00.350Z,3.10
2022-12-09T00:13:24.123Z,3.10
2022-12-09T00:16:48.375Z,3.00
2022-12-09T00:20:16.038Z,2.90
2022-12-09T00:23:40.327Z,2.70
2022-12-09T00:27:04.334Z,2.60
2022-12-09T00:30:28.867Z,2.50
2022-12-09T00:33:54.320Z,2.50
2022-12-09T00:37:19.737Z,2.50
2022-12-09T00:40:45.384Z,2.50
2022-12-09T00:44:09.330Z,2.40
2022-12-09T00:47:36.831Z,2.50
2022-12-09T00:51:02.158Z,2.60
2022-12-09T00:54:27.617Z,2.70
2022-12-09T00:57:52.141Z,2.90
2022-12-09T01:01:16.417Z,2.90
2022-12-09T01:04:41.383Z,2.80
2022-12-09T01:08:05.776Z,2.70
2022-12-09T01:11:33.932Z,2.80
2022-12-09T01:14:58.392Z,2.90
2022-12-09T01:18:22.196Z,3.10
2022-12-09T01:21:54.896Z,3.20
2022-12-09T01:25:19.490Z,3.20
2022-12-09T01:28:44.497Z,3.10
2022-12-09T01:32:09.614Z,3.00
2022-12-09T01:35:37.543Z,3.10
2022-12-09T01:39:02.218Z,2.90
2022-12-09T01:42:27.701Z,2.80
2022-12-09T01:45:55.397Z,2.80
2022-12-09T01:49:24.733Z,2.80
2022-12-09T01:52:50.101Z,2.70
2022-12-09T01:56:18.685Z,2.60
2022-12-09T01:59:44.208Z,2.70
2022-12-09T02:03:09.808Z,2.80
2022-12-09T02:06:36.453Z,2.90
2022-12-09T02:10:02.799Z,3.10
2022-12-09T02:13:45.065Z,3.20
2022-12-09T02:17:23.484Z,3.10
2022-12-09T02:20:57.498Z,3.00
2022-12-09T02:24:29.484Z,2.90
2022-12-09T02:28:11.974Z,2.90
2022-12-09T02:31:54.399Z,2.90
2022-12-09T02:35:28.637Z,2.90
2022-12-09T02:38:55.363Z,3.00
2022-12-09T02:42:22.884Z,3.00
2022-12-09T02:45:48.380Z,2.90
2022-12-09T02:49:15.906Z,2.70
2022-12-09T02:52:43.393Z,2.50
2022-12-09T02:56:09.049Z,2.20
2022-12-09T02:59:32.969Z,2.10
2022-12-09T03:03:02.439Z,2.10
2022-12-09T03:06:32.159Z,2.10
2022-12-09T03:10:04.953Z,2.00
2022-12-09T03:13:41.748Z,2.00
2022-12-09T03:17:13.005Z,1.90
2022-12-09T03:20:42.288Z,1.90
2022-12-09T03:24:11.535Z,1.90
2022-12-09T03:27:44.201Z,2.00
2022-12-09T03:31:14.342Z,2.00
2022-12-09T03:34:41.892Z,2.00
2022-12-09T03:38:09.664Z,2.00
2022-12-09T03:41:34.901Z,2.00
2022-12-09T03:45:04.146Z,2.00
2022-12-09T03:48:30.910Z,1.90
2022-12-09T03:52:02.379Z,1.90
2022-12-09T03:55:37.478Z,1.80
2022-12-09T03:59:06.598Z,1.70
2022-12-09T04:02:33.226Z,1.60
2022-12-09T04:05:59.871Z,1.60
2022-12-09T04:09:30.142Z,1.70
2022-12-09T04:12:54.481Z,1.80
2022-12-09T04:16:18.696Z,2.00
2022-12-09T04:19:45.075Z,2.10
2022-12-09T04:23:09.264Z,2.10
2022-12-09T04:26:33.661Z,2.10
2022-12-09T04:29:57.557Z,2.20
2022-12-09T04:33:21.705Z,2.20
2022-12-09T04:36:49.327Z,2.30
2022-12-09T04:40:21.317Z,2.30
2022-12-09T04:43:48.894Z,2.30
2022-12-09T04:47:13.502Z,2.20
2022-12-09T04:50:37.684Z,2.20
2022-12-09T04:54:05.085Z,2.20
2022-12-09T04:57:30.870Z,2.20
2022-12-09T05:00:54.672Z,2.30
2022-12-09T05:04:19.718Z,2.40
2022-12-09T05:07:45.154Z,2.40
2022-12-09T05:11:11.350Z,2.50
2022-12-09T05:14:35.663Z,2.40
2022-12-09T05:18:02.412Z,2.40
2022-12-09T05:21:26.543Z,2.40
2022-12-09T05:24:50.846Z,2.60
2022-12-09T05:28:17.241Z,2.70
2022-12-09T05:31:41.144Z,2.70
2022-12-09T05:35:06.379Z,2.70
2022-12-09T05:38:31.311Z,2.60
2022-12-09T05:41:55.518Z,2.50
2022-12-09T05:45:20.829Z,2.60
2022-12-09T05:48:45.392Z,2.70
2022-12-09T05:52:12.247Z,2.80
2022-12-09T05:55:36.645Z,2.70
2022-12-09T05:59:00.874Z,2.70
2022-12-09T06:02:27.074Z,2.60
2022-12-09T06:05:52.679Z,2.60
2022-12-09T06:09:17.832Z,2.50
2022-12-09T06:12:42.545Z,2.20
2022-12-09T06:16:07.868Z,1.90
2022-12-09T06:19:34.280Z,1.70
2022-12-09T06:22:58.431Z,1.60
2022-12-09T06:26:24.595Z,1.60
2022-12-09T06:29:48.454Z,1.60
2022-12-09T06:33:36.866Z,1.60
2022-12-09T06:36:57.302Z,1.60
2022-12-09T06:40:22.121Z,1.60
2022-12-09T06:43:46.143Z,1.60
2022-12-09T06:47:10.514Z,1.50
2022-12-09T06:50:34.366Z,1.40
2022-12-09T06:53:59.842Z,1.30
2022-12-09T06:57:23.466Z,1.30
2022-12-09T07:00:47.370Z,1.30
2022-12-09T07:04:14.633Z,1.30
2022-12-09T07:07:38.780Z,1.40
2022-12-09T07:11:03.945Z,1.30
2022-12-09T07:14:28.285Z,1.30
2022-12-09T07:17:52.042Z,1.40
2022-12-09T07:21:19.479Z,1.30
2022-12-09T07:24:43.931Z,1.30
2022-12-09T07:28:09.119Z,1.30
2022-12-09T07:31:33.800Z,1.30
2022-12-09T07:34:59.407Z,1.30
2022-12-09T07:38:23.725Z,1.30
2022-12-09T07:41:52.072Z,1.40
2022-12-09T07:45:17.827Z,1.50
2022-12-09T07:48:42.549Z,1.50
2022-12-09T07:52:07.083Z,1.60
2022-12-09T07:55:31.281Z,1.60
2022-12-09T07:58:55.465Z,1.60
2022-12-09T08:02:20.852Z,1.60
2022-12-09T08:05:48.848Z,1.60
2022-12-09T08:09:14.858Z,1.70
2022-12-09T08:12:38.797Z,1.80
2022-12-09T08:16:03.957Z,2.00
2022-12-09T08:19:29.606Z,2.10
2022-12-09T08:22:53.660Z,2.10
2022-12-09T08:26:19.861Z,2.10
2022-12-09T08:29:44.267Z,2.20
2022-12-09T08:33:08.087Z,2.30
2022-12-09T08:36:33.820Z,2.30
2022-12-09T08:39:57.839Z,2.30
2022-12-09T08:43:22.106Z,2.30
2022-12-09T08:46:49.455Z,2.10
2022-12-09T08:50:16.351Z,2.00
2022-12-09T08:53:43.623Z,1.90
2022-12-09T08:57:11.834Z,1.80
2022-12-09T09:00:36.405Z,1.60
2022-12-09T09:04:07.599Z,1.70
2022-12-09T09:07:37.231Z,1.60
2022-12-09T09:11:10.480Z,1.60
2022-12-09T09:14:35.790Z,1.60
2022-12-09T09:18:04.848Z,1.50
2022-12-09T09:21:30.509Z,1.40
2022-12-09T09:24:56.258Z,1.60
2022-12-09T09:28:27.353Z,1.80
2022-12-09T09:31:56.481Z,1.90
2022-12-09T09:35:21.482Z,1.80
2022-12-09T09:38:45.891Z,1.80
2022-12-09T09:42:17.168Z,1.70
2022-12-09T09:45:42.654Z,1.60
2022-12-09T09:49:14.615Z,1.60
2022-12-09T09:52:42.103Z,1.40
2022-12-09T09:56:16.440Z,1.40
2022-12-09T09:59:50.053Z,1.40
2022-12-09T10:03:21.947Z,1.50
2022-12-09T10:06:53.239Z,1.60
2022-12-09T10:10:28.543Z,1.90
2022-12-09T10:13:57.873Z,1.90
2022-12-09T10:17:29.119Z,1.90
2022-12-09T10:20:54.759Z,1.70
2022-12-09T10:24:24.206Z,1.60
2022-12-09T10:27:53.407Z,1.60
2022-12-09T10:31:17.315Z,1.60
2022-12-09T10:34:41.124Z,1.50
2022-12-09T10:38:11.958Z,1.40
2022-12-09T10:42:01.405Z,1.50
2022-12-09T10:45:32.117Z,1.80
2022-12-09T10:49:55.403Z,2.20
2022-12-09T10:58:30.360Z,2.40
2022-12-09T11:01:56.695Z,2.50
2022-12-09T11:05:27.543Z,2.60
2022-12-09T11:08:54.574Z,2.80
2022-12-09T11:12:21.986Z,3.00
2022-12-09T11:15:54.399Z,3.10
2022-12-09T11:19:18.531Z,3.20
2022-12-09T11:22:44.135Z,2.90
2022-12-09T11:26:23.848Z,2.80
2022-12-09T11:29:47.560Z,2.80
2022-12-09T11:33:27.195Z,2.70
2022-12-09T11:36:53.563Z,2.80
2022-12-09T11:40:19.330Z,2.70
2022-12-09T11:43:46.032Z,2.70
2022-12-09T11:47:13.317Z,2.80
2022-12-09T11:50:42.597Z,2.80
2022-12-09T11:54:13.721Z,2.50
2022-12-09T11:57:44.053Z,2.70
2022-12-09T12:01:12.638Z,2.80
2022-12-09T12:04:41.103Z,3.00
2022-12-09T12:08:17.564Z,3.00
2022-12-09T12:11:47.647Z,2.90
2022-12-09T12:15:16.093Z,2.70
2022-12-09T12:18:45.683Z,2.80
2022-12-09T12:22:28.336Z,2.90
2022-12-09T12:26:00.576Z,3.10
2022-12-09T12:29:35.667Z,3.20
2022-12-09T12:33:59.700Z,3.10
2022-12-09T12:37:14.114Z,2.90
2022-12-09T12:40:44.343Z,2.60
2022-12-09T12:44:44.253Z,2.70
2022-12-09T12:48:16.169Z,2.70
2022-12-09T12:51:52.650Z,2.80
2022-12-09T12:55:37.054Z,2.90
2022-12-09T12:59:08.444Z,3.00
2022-12-09T13:02:43.155Z,3.10
2022-12-09T13:06:12.252Z,3.00
2022-12-09T13:09:42.472Z,2.80
2022-12-09T13:13:13.320Z,2.70
2022-12-09T13:16:41.132Z,2.20
2022-12-09T13:20:08.268Z,2.40
2022-12-09T13:23:49.565Z,2.50
2022-12-09T13:27:19.046Z,2.70
2022-12-09T13:30:52.660Z,2.70
2022-12-09T13:34:25.791Z,2.50
2022-12-09T13:38:01.763Z,2.40
2022-12-09T13:41:53.217Z,2.60
2022-12-09T13:45:21.699Z,2.50
2022-12-09T13:48:47.938Z,2.50
2022-12-09T13:52:11.634Z,2.50
2022-12-09T13:55:48.114Z,2.40
2022-12-09T13:59:39.246Z,2.30
2022-12-09T14:03:08.029Z,2.40
2022-12-09T14:06:36.690Z,2.40
2022-12-09T14:10:02.202Z,2.40
2022-12-09T14:13:33.331Z,2.20
2022-12-09T14:16:58.137Z,2.30
2022-12-09T14:20:24.797Z,2.30
2022-12-09T14:24:21.441Z,2.30
2022-12-09T14:28:26.843Z,2.30
2022-12-09T14:32:01.220Z,2.30
2022-12-09T14:35:31.508Z,2.20
2022-12-09T14:39:23.113Z,2.20
2022-12-09T14:42:52.182Z,2.20
2022-12-09T14:46:25.240Z,2.20
2022-12-09T14:49:50.770Z,2.10
2022-12-09T14:53:23.200Z,2.10
2022-12-09T14:56:49.471Z,2.00
2022-12-09T15:00:32.384Z,2.00
2022-12-09T15:03:57.913Z,2.00
2022-12-09T15:07:26.029Z,2.00
2022-12-09T15:10:49.861Z,2.00
2022-12-09T15:14:30.196Z,1.90
2022-12-09T15:17:58.150Z,1.90
2022-12-09T15:21:29.678Z,1.80
2022-12-09T15:24:55.746Z,1.70
2022-12-09T15:28:26.113Z,1.60
2022-12-09T15:31:53.496Z,1.50
2022-12-09T15:35:30.464Z,1.50
2022-12-09T15:38:58.367Z,1.50
2022-12-09T15:42:27.371Z,1.40
2022-12-09T15:45:51.275Z,1.40
2022-12-09T15:49:18.326Z,1.40
2022-12-09T15:52:47.107Z,1.30
2022-12-09T15:56:15.593Z,1.30
2022-12-09T15:59:43.842Z,1.30
2022-12-09T16:03:08.628Z,1.30
2022-12-09T16:06:36.450Z,1.30
2022-12-09T16:10:07.965Z,1.20
2022-12-09T16:13:32.643Z,1.20
2022-12-09T16:17:01.280Z,1.20
2022-12-09T16:20:34.879Z,1.20
2022-12-09T16:24:08.020Z,1.10
2022-12-09T16:27:37.179Z,1.10
2022-12-09T16:31:03.275Z,1.20
2022-12-09T16:34:28.909Z,1.20
2022-12-09T16:38:18.221Z,1.20
2022-12-09T16:41:58.582Z,1.10
2022-12-09T16:45:25.130Z,1.20
2022-12-09T16:48:50.064Z,1.20
2022-12-09T16:52:20.160Z,1.20
2022-12-09T16:55:51.227Z,1.30
2022-12-09T16:59:14.928Z,1.40
2022-12-09T17:02:45.461Z,1.40
2022-12-09T17:06:14.592Z,1.50
2022-12-09T17:09:39.629Z,1.50
2022-12-09T17:13:03.580Z,1.60
2022-12-09T17:16:27.512Z,1.60
2022-12-09T17:19:51.910Z,1.60
2022-12-09T17:23:15.548Z,1.70
2022-12-09T17:26:40.629Z,1.70
2022-12-09T17:30:04.927Z,1.70
2022-12-09T17:33:29.837Z,1.70
2022-12-09T17:36:54.881Z,1.80
2022-12-09T17:40:18.723Z,1.90
2022-12-09T17:43:44.190Z,1.80
2022-12-09T17:47:07.906Z,1.80
2022-12-09T17:50:32.989Z,1.80
2022-12-09T17:53:56.817Z,1.80
2022-12-09T17:57:20.637Z,1.80
2022-12-09T18:00:47.665Z,1.80
2022-12-09T18:04:11.821Z,1.80
2022-12-09T18:07:35.625Z,1.80
2022-12-09T18:11:03.940Z,1.80
2022-12-09T18:14:27.672Z,1.90
2022-12-09T18:17:52.597Z,1.80
2022-12-09T18:21:16.704Z,1.90
2022-12-09T18:24:40.504Z,1.90
2022-12-09T18:28:04.153Z,1.80
2022-12-09T18:31:28.684Z,1.80
2022-12-09T18:34:54.941Z,1.80
2022-12-09T18:38:19.057Z,1.80
2022-12-09T18:41:44.246Z,1.90
2022-12-09T18:45:10.535Z,2.00
2022-12-09T18:48:35.818Z,2.00
2022-12-09T18:52:00.775Z,2.10
2022-12-09T18:55:24.405Z,2.10
2022-12-09T18:59:06.039Z,2.00
2022-12-09T19:02:31.117Z,1.90
2022-12-09T19:05:54.768Z,1.80
2022-12-09T19:09:21.629Z,1.80
2022-12-09T19:12:47.317Z,1.90
2022-12-09T19:16:11.983Z,1.90
2022-12-09T19:19:35.634Z,1.90
2022-12-09T19:23:00.495Z,2.00
2022-12-09T19:26:28.983Z,2.00
2022-12-09T19:29:52.595Z,1.90
2022-12-09T19:33:16.203Z,1.90
2022-12-09T19:36:40.205Z,1.90
2022-12-09T19:40:04.079Z,1.90
2022-12-09T19:43:29.288Z,1.90
2022-12-09T19:46:52.980Z,1.90
2022-12-09T19:50:16.658Z,1.90
2022-12-09T19:53:40.874Z,1.90
2022-12-09T19:57:05.534Z,1.90
2022-12-09T20:00:30.854Z,1.80
2022-12-09T20:03:58.428Z,1.70
2022-12-09T20:07:22.401Z,1.50
2022-12-09T20:10:47.502Z,1.40
2022-12-09T20:14:13.907Z,1.30
2022-12-09T20:17:38.947Z,1.30
2022-12-09T20:21:04.535Z,1.20
2022-12-09T20:24:33.363Z,1.20
2022-12-09T20:27:58.038Z,1.10
2022-12-09T20:31:25.772Z,1.10
2022-12-09T20:34:57.875Z,1.10
2022-12-09T20:38:22.518Z,0.90
2022-12-09T20:41:46.979Z,0.80
2022-12-09T20:45:15.131Z,0.70
2022-12-09T20:48:40.872Z,0.70
2022-12-09T20:52:10.226Z,0.60
2022-12-09T20:55:34.908Z,0.50
2022-12-09T20:59:04.107Z,0.40
2022-12-09T21:02:41.722Z,0.40
2022-12-09T21:06:07.961Z,0.40
2022-12-09T21:09:36.213Z,0.50
2022-12-09T21:13:00.797Z,0.50
2022-12-09T21:16:27.009Z,0.40
2022-12-09T21:19:53.922Z,0.40
2022-12-09T21:23:36.322Z,0.30
2022-12-09T21:27:02.971Z,0.30
2022-12-09T21:30:34.898Z,0.30
2022-12-09T21:34:01.581Z,0.30
2022-12-09T21:37:29.721Z,0.30
2022-12-09T21:40:54.624Z,0.20
2022-12-09T21:44:22.154Z,0.20
2022-12-09T21:47:45.767Z,0.30
2022-12-09T21:51:13.372Z,0.10
2022-12-09T21:54:38.086Z,0.10
2022-12-09T21:58:02.616Z,0.10
2022-12-09T22:01:30.084Z,0.20
2022-12-09T22:04:54.711Z,0.20
2022-12-09T22:08:18.864Z,0.20
2022-12-09T22:11:42.617Z,0.10
2022-12-09T22:15:10.545Z,0.10
2022-12-09T22:18:36.412Z,0.10
2022-12-09T22:22:04.604Z,0.00
2022-12-09T22:25:31.096Z,-0.10
2022-12-09T22:28:56.087Z,0.00
2022-12-09T22:32:19.733Z,0.00
2022-12-09T22:35:45.260Z,-0.10
2022-12-09T22:39:12.641Z,-0.20
2022-12-09T22:42:36.276Z,-0.20
2022-12-09T22:46:05.699Z,-0.10
2022-12-09T22:49:31.536Z,-0.10
2022-12-09T22:53:03.916Z,0.00
2022-12-09T22:56:29.137Z,0.00
2022-12-09T22:59:53.610Z,0.10
2022-12-09T23:03:18.101Z,0.20
2022-12-09T23:06:43.441Z,0.20
2022-12-09T23:10:12.740Z,0.10
2022-12-09T23:13:40.963Z,0.10
2022-12-09T23:17:05.709Z,0.10
2022-12-09T23:20:30.230Z,0.10
2022-12-09T23:23:55.935Z,0.10
2022-12-09T23:27:23.441Z,0.10
2022-12-09T23:30:47.655Z,0.10
2022-12-09T23:34:14.410Z,0.00
2022-12-09T23:37:38.673Z,0.00
2022-12-09T23:41:02.703Z,0.10
2022-12-09T23:44:28.036Z,0.10
2022-12-09T23:47:51.868Z,0.10
2022-12-09T23:51:17.503Z,0.10
2022-12-09T23:54:41.337Z,0.20
2022-12-09T23:58:05.696Z,0.30
